sensor_id;sensor_type;location;lat;lon;timestamp;pressure;altitude;pressure_sealevel;temperature;humidity
43691;BME280;29293;52.190;21.226;2023-07-24T00:07:20;99530.22;;;18.51;100.00
43691;BME280;29293;52.190;21.226;2023-07-24T00:22:27;99509.70;;;18.43;100.00
43691;BME280;29293;52.190;21.226;2023-07-24T00:37:33;99511.57;;;18.36;100.00
43691;BME280;29293;52.190;21.226;2023-07-24T00:52:40;99519.47;;;18.30;100.00
43691;BME280;29293;52.190;21.226;2023-07-24T01:07:48;99519.91;;;18.21;100.00
43691;BME280;29293;52.190;21.226;2023-07-24T01:23:18;99531.73;;;18.16;100.00
43691;BME280;29293;52.190;21.226;2023-07-24T01:38:29;99532.23;;;18.09;100.00
43691;BME280;29293;52.190;21.226;2023-07-24T01:53:37;99527.70;;;18.05;100.00
43691;BME280;29293;52.190;21.226;2023-07-24T02:08:44;99525.27;;;17.99;100.00
43691;BME280;29293;52.190;21.226;2023-07-24T02:23:54;99523.70;;;17.94;100.00
43691;BME280;29293;52.190;21.226;2023-07-24T02:39:00;99515.80;;;17.88;100.00
43691;BME280;29293;52.190;21.226;2023-07-24T02:54:08;99514.77;;;17.84;100.00
43691;BME280;29293;52.190;21.226;2023-07-24T03:09:14;99522.92;;;17.70;100.00
43691;BME280;29293;52.190;21.226;2023-07-24T03:24:21;99528.48;;;17.50;100.00
43691;BME280;29293;52.190;21.226;2023-07-24T03:39:28;99547.69;;;17.37;100.00
43691;BME280;29293;52.190;21.226;2023-07-24T03:54:35;99554.27;;;17.29;100.00
43691;BME280;29293;52.190;21.226;2023-07-24T04:09:43;99559.08;;;17.38;100.00
43691;BME280;29293;52.190;21.226;2023-07-24T04:24:50;99550.91;;;17.49;100.00
43691;BME280;29293;52.190;21.226;2023-07-24T04:39:56;99551.80;;;17.60;100.00
43691;BME280;29293;52.190;21.226;2023-07-24T04:55:04;99555.13;;;17.90;100.00
43691;BME280;29293;52.190;21.226;2023-07-24T05:10:11;99561.48;;;18.11;100.00
43691;BME280;29293;52.190;21.226;2023-07-24T05:25:18;99551.97;;;18.54;100.00
43691;BME280;29293;52.190;21.226;2023-07-24T05:40:25;99556.49;;;19.12;100.00
43691;BME280;29293;52.190;21.226;2023-07-24T05:55:33;99556.10;;;19.29;100.00
43691;BME280;29293;52.190;21.226;2023-07-24T06:10:40;99563.63;;;19.29;100.00
43691;BME280;29293;52.190;21.226;2023-07-24T06:25:48;99568.13;;;19.49;100.00
43691;BME280;29293;52.190;21.226;2023-07-24T06:40:57;99574.84;;;19.70;100.00
43691;BME280;29293;52.190;21.226;2023-07-24T06:56:04;99566.16;;;19.86;100.00
43691;BME280;29293;52.190;21.226;2023-07-24T07:11:11;99563.52;;;20.31;100.00
43691;BME280;29293;52.190;21.226;2023-07-24T07:26:18;99565.57;;;20.82;100.00
43691;BME280;29293;52.190;21.226;2023-07-24T07:41:25;99562.73;;;21.77;100.00
43691;BME280;29293;52.190;21.226;2023-07-24T07:56:32;99561.21;;;22.27;100.00
43691;BME280;29293;52.190;21.226;2023-07-24T08:11:39;99558.05;;;22.66;97.02
43691;BME280;29293;52.190;21.226;2023-07-24T08:26:46;99557.06;;;22.76;89.44
43691;BME280;29293;52.190;21.226;2023-07-24T08:41:54;99554.36;;;22.99;88.73
43691;BME280;29293;52.190;21.226;2023-07-24T08:57:03;99556.16;;;23.22;88.61
43691;BME280;29293;52.190;21.226;2023-07-24T09:12:16;99541.48;;;23.80;80.85
43691;BME280;29293;52.190;21.226;2023-07-24T09:27:26;99532.18;;;23.91;76.77
43691;BME280;29293;52.190;21.226;2023-07-24T09:42:34;99512.38;;;24.52;71.30
43691;BME280;29293;52.190;21.226;2023-07-24T09:57:41;99490.09;;;25.25;67.17
43691;BME280;29293;52.190;21.226;2023-07-24T10:12:54;99475.43;;;24.97;67.46
43691;BME280;29293;52.190;21.226;2023-07-24T10:28:05;99447.28;;;25.03;65.27
43691;BME280;29293;52.190;21.226;2023-07-24T10:43:17;99444.28;;;25.33;64.88
43691;BME280;29293;52.190;21.226;2023-07-24T10:58:28;99415.97;;;26.02;61.12
43691;BME280;29293;52.190;21.226;2023-07-24T11:13:35;99386.60;;;26.67;56.95
43691;BME280;29293;52.190;21.226;2023-07-24T11:28:45;99381.19;;;26.89;54.90
43691;BME280;29293;52.190;21.226;2023-07-24T11:43:52;99377.61;;;27.82;51.61
43691;BME280;29293;52.190;21.226;2023-07-24T11:59:10;99359.98;;;28.53;51.23
43691;BME280;29293;52.190;21.226;2023-07-24T12:14:17;99337.60;;;29.52;47.84
43691;BME280;29293;52.190;21.226;2023-07-24T12:29:27;99332.72;;;29.98;45.07
43691;BME280;29293;52.190;21.226;2023-07-24T12:44:33;99307.10;;;30.21;45.31
43691;BME280;29293;52.190;21.226;2023-07-24T12:59:40;99282.31;;;30.01;44.55
43691;BME280;29293;52.190;21.226;2023-07-24T13:14:49;99258.85;;;29.28;44.20
43691;BME280;29293;52.190;21.226;2023-07-24T13:29:56;99229.39;;;29.23;45.28
43691;BME280;29293;52.190;21.226;2023-07-24T13:45:04;99211.36;;;30.27;43.45
43691;BME280;29293;52.190;21.226;2023-07-24T14:00:12;99200.87;;;29.81;42.40
43691;BME280;29293;52.190;21.226;2023-07-24T14:15:19;99173.64;;;29.09;44.59
43691;BME280;29293;52.190;21.226;2023-07-24T14:30:26;99143.47;;;28.63;47.11
43691;BME280;29293;52.190;21.226;2023-07-24T14:45:31;99119.77;;;28.99;43.54
43691;BME280;29293;52.190;21.226;2023-07-24T15:00:38;99105.29;;;29.21;43.96
43691;BME280;29293;52.190;21.226;2023-07-24T15:15:45;99084.49;;;28.99;43.88
43691;BME280;29293;52.190;21.226;2023-07-24T15:30:52;99076.85;;;28.69;44.36
43691;BME280;29293;52.190;21.226;2023-07-24T15:45:59;99064.33;;;28.64;44.43
43691;BME280;29293;52.190;21.226;2023-07-24T16:01:06;99054.77;;;28.58;43.37
43691;BME280;29293;52.190;21.226;2023-07-24T16:16:11;99044.27;;;28.41;42.26
43691;BME280;29293;52.190;21.226;2023-07-24T16:31:18;99020.15;;;28.15;42.97
43691;BME280;29293;52.190;21.226;2023-07-24T16:46:25;98995.09;;;27.66;44.55
43691;BME280;29293;52.190;21.226;2023-07-24T17:01:32;98976.57;;;27.24;46.31
43691;BME280;29293;52.190;21.226;2023-07-24T17:16:40;98967.61;;;27.01;47.93
43691;BME280;29293;52.190;21.226;2023-07-24T17:31:48;98966.86;;;26.61;49.85
43691;BME280;29293;52.190;21.226;2023-07-24T17:46:55;98949.84;;;26.16;50.72
43691;BME280;29293;52.190;21.226;2023-07-24T18:02:02;98944.33;;;25.92;52.07
43691;BME280;29293;52.190;21.226;2023-07-24T18:17:10;98943.45;;;25.63;52.86
43691;BME280;29293;52.190;21.226;2023-07-24T18:32:18;98937.52;;;25.36;53.47
43691;BME280;29293;52.190;21.226;2023-07-24T18:47:28;98933.46;;;25.09;55.02
43691;BME280;29293;52.190;21.226;2023-07-24T19:02:35;98925.16;;;24.79;55.87
43691;BME280;29293;52.190;21.226;2023-07-24T19:17:43;98930.27;;;25.02;54.38
43691;BME280;29293;52.190;21.226;2023-07-24T19:32:50;98915.33;;;25.03;54.72
43691;BME280;29293;52.190;21.226;2023-07-24T19:47:56;98907.98;;;24.66;56.25
43691;BME280;29293;52.190;21.226;2023-07-24T20:03:03;98918.56;;;24.33;57.39
43691;BME280;29293;52.190;21.226;2023-07-24T20:18:11;98927.95;;;23.89;59.52
43691;BME280;29293;52.190;21.226;2023-07-24T20:33:18;98926.71;;;23.54;62.08
43691;BME280;29293;52.190;21.226;2023-07-24T20:48:27;98919.07;;;23.59;63.89
43691;BME280;29293;52.190;21.226;2023-07-24T21:03:35;98905.77;;;23.47;65.17
43691;BME280;29293;52.190;21.226;2023-07-24T21:18:42;98886.80;;;23.19;67.75
43691;BME280;29293;52.190;21.226;2023-07-24T21:33:48;98889.31;;;22.86;71.02
43691;BME280;29293;52.190;21.226;2023-07-24T21:48:59;98871.63;;;22.57;75.78
43691;BME280;29293;52.190;21.226;2023-07-24T22:04:06;98870.51;;;22.37;81.04
43691;BME280;29293;52.190;21.226;2023-07-24T22:19:13;98860.05;;;22.16;85.78
43691;BME280;29293;52.190;21.226;2023-07-24T22:34:20;98845.94;;;21.97;89.80
43691;BME280;29293;52.190;21.226;2023-07-24T22:49:29;98861.14;;;21.83;94.41
43691;BME280;29293;52.190;21.226;2023-07-24T23:04:36;98850.37;;;21.73;98.71
43691;BME280;29293;52.190;21.226;2023-07-24T23:19:43;98849.08;;;21.60;100.00
43691;BME280;29293;52.190;21.226;2023-07-24T23:34:50;98830.52;;;21.43;100.00
43691;BME280;29293;52.190;21.226;2023-07-24T23:49:59;98816.31;;;21.24;100.00
